Time;durP1;ratioP1;P1;durP2;ratioP2;P2;SDS_P1;SDS_P2;PMS_P1;PMS_P2;Temp;Humidity;BMP_temperature;BMP_pressure;BME280_temperature;BME280_humidity;BME280_pressure;Samples;Min_cycle;Max_cycle;Signal;HPM_P1;HPM_P2
2022/03/01 00:02:00;;;;;;;7.05;6.75;;;;;;;2.01;52.38;101943.59;5068156;28;20021;-66
2022/03/01 00:04:25;;;;;;;6.97;6.68;;;;;;;2.07;52.28;101946.75;5072073;28;20403;-65
2022/03/01 00:06:51;;;;;;;7.32;6.93;;;;;;;2.04;51.94;101943.44;5073943;28;20037;-66
2022/03/01 00:09:17;;;;;;;7.60;7.20;;;;;;;1.80;52.65;101930.78;5072318;28;20040;-66
2022/03/01 00:11:42;;;;;;;7.15;6.80;;;;;;;1.89;52.46;101945.97;5082532;28;20543;-66
2022/03/01 00:14:08;;;;;;;7.50;7.10;;;;;;;1.80;51.90;101937.78;5073708;28;20537;-65
2022/03/01 00:16:34;;;;;;;7.07;6.78;;;;;;;1.78;52.03;101927.41;5073463;28;20036;-66
2022/03/01 00:19:00;;;;;;;7.55;7.15;;;;;;;1.86;52.33;101929.59;5073931;28;20097;-66
2022/03/01 00:21:26;;;;;;;7.30;6.90;;;;;;;1.93;52.03;101939.63;5073264;28;20048;-66
2022/03/01 00:23:52;;;;;;;6.70;6.40;;;;;;;1.88;52.40;101943.44;5073428;28;20030;-66
2022/03/01 00:26:18;;;;;;;6.88;6.57;;;;;;;1.86;52.75;101940.91;5073728;28;20107;-66
2022/03/01 00:28:44;;;;;;;7.10;6.80;;;;;;;1.80;52.20;101940.38;5072992;28;20020;-66
2022/03/01 00:31:09;;;;;;;7.28;6.88;;;;;;;1.77;52.26;101932.72;5069432;28;20503;-66
2022/03/01 00:33:35;;;;;;;7.45;7.05;;;;;;;1.70;52.12;101926.97;5073581;28;20115;-66
2022/03/01 00:36:00;;;;;;;7.88;7.47;;;;;;;1.73;52.93;101933.81;5073461;28;20031;-66
2022/03/01 00:38:26;;;;;;;6.88;6.57;;;;;;;1.55;52.35;101926.03;5072895;28;20475;-66
2022/03/01 00:40:52;;;;;;;7.30;7.00;;;;;;;1.50;53.06;101927.19;5073128;28;20042;-67
2022/03/01 00:43:17;;;;;;;7.90;7.50;;;;;;;1.66;52.51;101936.75;5073287;28;20028;-65
2022/03/01 00:45:43;;;;;;;7.63;7.22;;;;;;;1.65;52.33;101926.38;5071409;28;20447;-65
2022/03/01 00:48:08;;;;;;;6.68;6.38;;;;;;;1.67;52.73;101924.50;5072541;28;20111;-64
2022/03/01 00:50:34;;;;;;;6.90;6.60;;;;;;;1.61;53.52;101928.28;5072680;28;20043;-64
2022/03/01 00:53:00;;;;;;;7.50;7.10;;;;;;;1.59;53.02;101922.31;5071824;28;20453;-65
2022/03/01 00:55:25;;;;;;;7.20;6.90;;;;;;;1.58;53.06;101923.25;5072746;28;20453;-65
2022/03/01 00:57:51;;;;;;;6.95;6.65;;;;;;;1.45;53.34;101914.34;5069970;28;20045;-66
2022/03/01 01:00:17;;;;;;;7.75;7.35;;;;;;;1.57;53.54;101918.94;5059780;28;20027;-65
2022/03/01 01:02:43;;;;;;;6.80;6.50;;;;;;;1.47;53.67;101911.66;5072667;28;20020;-65
2022/03/01 01:05:09;;;;;;;7.47;7.07;;;;;;;1.54;53.54;101907.78;5072714;28;20468;-65
2022/03/01 01:07:36;;;;;;;6.70;6.40;;;;;;;1.54;53.96;101910.41;5072129;28;20025;-65
2022/03/01 01:10:03;;;;;;;7.22;6.82;;;;;;;1.44;53.66;101912.66;5072593;28;20020;-65
2022/03/01 01:12:28;;;;;;;6.93;6.63;;;;;;;1.47;53.73;101911.66;5069975;28;20151;-64
2022/03/01 01:14:54;;;;;;;7.00;6.70;;;;;;;1.37;54.15;101887.78;5072618;28;20440;-65
2022/03/01 01:17:20;;;;;;;7.50;7.10;;;;;;;1.43;53.99;101918.84;5079657;28;20059;-66
2022/03/01 01:19:45;;;;;;;7.45;7.05;;;;;;;1.48;53.91;101911.59;5077569;28;20067;-64
2022/03/01 01:24:54;;;;;;;6.68;6.38;;;;;;;1.38;54.23;101905.16;5070554;28;20107;-65
2022/03/01 01:27:20;;;;;;;7.53;7.13;;;;;;;1.50;54.25;101909.72;5070602;28;20040;-65
2022/03/01 01:29:45;;;;;;;7.10;6.80;;;;;;;1.50;54.45;101903.66;5072167;28;20032;-65
2022/03/01 01:32:11;;;;;;;7.15;6.80;;;;;;;1.51;53.87;101895.72;5073327;28;20101;-66
2022/03/01 01:34:36;;;;;;;7.22;6.85;;;;;;;1.47;54.63;101898.56;5072121;28;20027;-65
2022/03/01 01:37:02;;;;;;;6.72;6.43;;;;;;;1.47;54.57;101906.41;5071730;28;20115;-66
2022/03/01 01:39:27;;;;;;;7.50;7.10;;;;;;;1.39;54.29;101897.22;5072068;28;20027;-65
2022/03/01 01:41:53;;;;;;;7.30;6.90;;;;;;;1.46;54.72;101894.28;5066608;28;20403;-65
2022/03/01 01:44:18;;;;;;;7.03;6.72;;;;;;;1.32;54.38;101903.72;5072146;28;20064;-66
2022/03/01 01:46:44;;;;;;;7.47;7.07;;;;;;;1.27;54.71;101895.28;5071669;28;20032;-65
2022/03/01 01:49:09;;;;;;;7.32;6.93;;;;;;;1.31;54.57;101895.94;5071698;28;20226;-65
2022/03/01 01:51:35;;;;;;;7.78;7.38;;;;;;;1.22;55.19;101892.06;5087126;28;20058;-65
2022/03/01 01:54:00;;;;;;;7.80;7.40;;;;;;;1.31;54.29;101896.78;5070442;28;20020;-65
2022/03/01 01:56:26;;;;;;;7.45;7.05;;;;;;;1.24;54.71;101897.19;5071797;28;20035;-66
2022/03/01 01:58:52;;;;;;;7.60;7.20;;;;;;;1.28;55.22;101885.66;5071213;28;20095;-65
2022/03/01 02:01:18;;;;;;;6.70;6.40;;;;;;;1.23;55.65;101892.88;5071501;28;20025;-66
2022/03/01 02:03:43;;;;;;;7.63;7.22;;;;;;;1.27;55.43;101897.88;5071545;28;20029;-65
2022/03/01 02:06:09;;;;;;;7.20;6.90;;;;;;;1.22;55.59;101894.66;5071495;28;20051;-66
2022/03/01 02:08:35;;;;;;;7.30;6.90;;;;;;;1.19;55.38;101888.78;5065351;28;20029;-66
2022/03/01 02:11:00;;;;;;;7.28;6.88;;;;;;;1.19;55.43;101899.22;5065655;28;20041;-66
2022/03/01 02:13:27;;;;;;;6.82;6.53;;;;;;;1.21;55.35;101892.13;5071314;28;20487;-66
2022/03/01 02:15:54;;;;;;;6.97;6.68;;;;;;;0.96;56.00;101885.59;5071511;28;20035;-66
2022/03/01 02:18:20;;;;;;;7.00;6.70;;;;;;;1.16;55.58;101901.97;5071556;28;20028;-65
2022/03/01 02:20:46;;;;;;;7.05;6.70;;;;;;;0.98;56.25;101898.56;5071222;28;20032;-64
2022/03/01 02:23:12;;;;;;;7.00;6.68;;;;;;;1.05;55.99;101884.25;5071572;28;20020;-65
2022/03/01 02:25:37;;;;;;;7.47;7.07;;;;;;;1.00;55.87;101886.25;5077923;28;20529;-65
2022/03/01 02:28:04;;;;;;;7.45;7.05;;;;;;;0.97;56.23;101900.34;5071379;28;20452;-65
2022/03/01 02:30:31;;;;;;;7.65;7.25;;;;;;;0.94;56.46;101894.41;5071315;28;20024;-64
2022/03/01 02:32:56;;;;;;;7.05;6.75;;;;;;;0.97;56.40;101892.50;5086510;28;20453;-64
2022/03/01 02:35:23;;;;;;;7.00;6.70;;;;;;;1.01;55.94;101888.78;5071476;28;20107;-65
2022/03/01 02:37:49;;;;;;;7.30;6.90;;;;;;;0.94;56.38;101894.41;5071104;28;20085;-65
2022/03/01 02:40:15;;;;;;;7.45;7.05;;;;;;;0.85;56.66;101893.13;5071127;28;20127;-65
2022/03/01 02:42:43;;;;;;;7.00;6.70;;;;;;;0.97;56.98;101899.50;5071456;28;20031;-66
2022/03/01 02:45:12;;;;;;;7.35;6.97;;;;;;;1.03;57.03;101888.72;5070976;28;20031;-65
2022/03/01 02:47:38;;;;;;;7.13;6.75;;;;;;;1.01;56.51;101886.19;5070930;28;20036;-66
2022/03/01 02:50:06;;;;;;;7.30;6.90;;;;;;;0.82;57.08;101891.53;5071127;28;20025;-65
2022/03/01 02:52:32;;;;;;;6.97;6.68;;;;;;;0.77;57.03;101890.91;5071555;28;20028;-65
2022/03/01 02:54:58;;;;;;;6.95;6.65;;;;;;;0.81;57.41;101884.63;5070845;28;20036;-64
2022/03/01 02:57:24;;;;;;;7.10;6.80;;;;;;;0.87;57.28;101883.44;5072551;28;20068;-66
2022/03/01 02:59:51;;;;;;;6.95;6.65;;;;;;;0.83;57.34;101900.19;5086799;28;20037;-66
2022/03/01 03:02:16;;;;;;;7.30;6.90;;;;;;;0.88;57.75;101886.88;5069821;28;20025;-65
2022/03/01 03:04:42;;;;;;;7.75;7.35;;;;;;;0.82;57.81;101883.69;5065832;28;20041;-65
2022/03/01 03:07:08;;;;;;;7.35;6.95;;;;;;;0.88;57.41;101882.50;5058642;28;20078;-65
2022/03/01 03:09:34;;;;;;;7.47;7.07;;;;;;;0.72;57.50;101879.84;5070998;28;20476;-65
2022/03/01 03:11:59;;;;;;;7.22;6.90;;;;;;;0.76;58.39;101876.16;5085897;28;20032;-65
2022/03/01 03:14:25;;;;;;;8.65;8.15;;;;;;;0.70;58.46;101873.84;5070805;28;20028;-64
2022/03/01 03:16:50;;;;;;;7.18;6.80;;;;;;;0.79;58.04;101865.53;5071055;28;20028;-65
2022/03/01 03:19:16;;;;;;;7.10;6.80;;;;;;;0.49;58.99;101854.03;5062157;28;20023;-65
2022/03/01 03:21:45;;;;;;;6.93;6.63;;;;;;;0.63;59.08;101863.81;5072476;28;20033;-66
2022/03/01 03:24:11;;;;;;;7.15;6.85;;;;;;;0.61;59.20;101866.50;5075989;28;20024;-65
2022/03/01 03:26:37;;;;;;;7.68;7.28;;;;;;;0.67;59.19;101868.81;5073275;28;20031;-64
2022/03/01 03:29:04;;;;;;;7.50;7.10;;;;;;;0.59;59.64;101859.63;5075986;28;20027;-66
2022/03/01 03:31:29;;;;;;;7.80;7.40;;;;;;;0.60;59.70;101862.19;5074905;28;20024;-65
2022/03/01 03:33:55;;;;;;;7.15;6.85;;;;;;;0.59;60.08;101847.47;5070066;28;20033;-64
2022/03/01 03:36:20;;;;;;;7.22;6.90;;;;;;;0.55;60.45;101854.59;5073103;28;20039;-64
2022/03/01 03:38:45;;;;;;;7.10;6.80;;;;;;;0.56;60.33;101858.03;5074229;28;20150;-64
2022/03/01 03:41:11;;;;;;;6.80;6.50;;;;;;;0.54;60.59;101846.84;5074365;28;20678;-66
2022/03/01 03:43:36;;;;;;;7.25;6.90;;;;;;;0.57;60.54;101846.66;5074301;28;20055;-65
2022/03/01 03:46:02;;;;;;;7.32;6.95;;;;;;;0.49;60.93;101835.78;5073773;28;20028;-66
2022/03/01 03:48:28;;;;;;;7.32;6.95;;;;;;;0.60;60.55;101840.47;5070564;28;20052;-65
2022/03/01 03:50:54;;;;;;;7.45;7.05;;;;;;;0.62;60.90;101842.06;5074026;28;20031;-65
2022/03/01 03:53:19;;;;;;;7.50;7.10;;;;;;;0.63;60.86;101848.13;5074063;28;20024;-65
2022/03/01 03:55:45;;;;;;;7.22;6.85;;;;;;;0.55;61.70;101853.75;5074171;28;20028;-66
2022/03/01 03:58:11;;;;;;;7.38;6.97;;;;;;;0.49;61.49;101833.16;5074707;28;20048;-65
2022/03/01 04:00:37;;;;;;;8.05;7.65;;;;;;;0.45;61.64;101832.50;5072644;28;20025;-65
2022/03/01 04:03:02;;;;;;;7.32;6.93;;;;;;;0.44;61.66;101835.16;5074240;28;20039;-65
2022/03/01 04:05:29;;;;;;;7.57;7.18;;;;;;;0.52;62.22;101835.63;5073619;28;20461;-65
2022/03/01 04:07:56;;;;;;;7.35;6.95;;;;;;;0.57;62.00;101835.38;5075293;28;20059;-65
2022/03/01 04:10:21;;;;;;;6.82;6.53;;;;;;;0.54;62.01;101845.06;5074957;28;20495;-65
2022/03/01 04:12:47;;;;;;;7.50;7.10;;;;;;;0.49;62.41;101835.78;5070484;28;20059;-66
2022/03/01 04:15:12;;;;;;;7.53;7.13;;;;;;;0.41;62.39;101838.78;5068684;28;20036;-65
2022/03/01 04:17:39;;;;;;;7.13;6.82;;;;;;;0.50;62.32;101835.69;5074635;28;20033;-65
2022/03/01 04:20:06;;;;;;;6.70;6.40;;;;;;;0.49;62.40;101833.16;5073508;28;20030;-66
2022/03/01 04:22:31;;;;;;;7.97;7.55;;;;;;;0.31;62.95;101829.72;5073387;28;20037;-65
2022/03/01 04:24:57;;;;;;;7.72;7.32;;;;;;;0.39;63.11;101830.19;5073463;28;20047;-66
2022/03/01 04:27:23;;;;;;;7.10;6.80;;;;;;;0.40;62.68;101838.84;5073134;28;20467;-64
2022/03/01 04:29:48;;;;;;;7.25;6.88;;;;;;;0.39;63.48;101831.94;5069175;28;20021;-66
2022/03/01 04:32:14;;;;;;;6.93;6.63;;;;;;;0.27;63.63;101825.56;5074395;28;20055;-66
2022/03/01 04:34:41;;;;;;;7.90;7.50;;;;;;;0.35;63.73;101831.25;5072333;28;20044;-65
2022/03/01 04:37:06;;;;;;;7.80;7.40;;;;;;;0.34;64.41;101826.94;5084151;28;20114;-66
2022/03/01 04:39:32;;;;;;;7.50;7.10;;;;;;;0.36;64.18;101830.31;5072002;28;20037;-65
2022/03/01 04:41:58;;;;;;;7.30;6.90;;;;;;;0.39;64.15;101834.56;5072918;28;20052;-65
2022/03/01 04:44:23;;;;;;;7.53;7.13;;;;;;;0.26;64.42;101840.38;5058915;28;20033;-66
2022/03/01 04:46:49;;;;;;;7.57;7.18;;;;;;;0.36;64.26;101838.16;5071342;28;20116;-66
2022/03/01 04:49:15;;;;;;;7.50;7.10;;;;;;;0.25;64.98;101835.25;5072546;28;20396;-65
2022/03/01 04:51:40;;;;;;;7.32;6.95;;;;;;;0.25;65.24;101838.69;5074582;28;20020;-66
2022/03/01 04:54:07;;;;;;;7.43;7.03;;;;;;;0.28;65.22;101850.75;5072951;28;20032;-66
2022/03/01 04:56:32;;;;;;;8.25;7.75;;;;;;;0.25;65.23;101846.53;5070697;28;20391;-66
2022/03/01 04:58:57;;;;;;;7.45;7.05;;;;;;;0.22;65.57;101849.31;5064421;28;20044;-66
2022/03/01 05:01:23;;;;;;;8.10;7.63;;;;;;;0.28;65.86;101851.59;5072003;28;20020;-65
2022/03/01 05:03:48;;;;;;;8.25;7.75;;;;;;;0.30;65.89;101845.47;5071768;28;20020;-66
2022/03/01 05:06:14;;;;;;;8.00;7.53;;;;;;;0.33;65.87;101840.09;5071193;28;20028;-66
2022/03/01 05:08:39;;;;;;;7.95;7.55;;;;;;;0.24;66.26;101850.06;5072425;28;20135;-65
2022/03/01 05:11:05;;;;;;;8.65;8.15;;;;;;;0.25;65.86;101843.91;5071835;28;20123;-65
2022/03/01 05:13:30;;;;;;;8.48;7.97;;;;;;;0.30;66.29;101841.09;5085813;28;20544;-65
2022/03/01 05:15:56;;;;;;;8.27;7.78;;;;;;;0.30;66.53;101842.88;5071672;28;20432;-66
2022/03/01 05:18:21;;;;;;;8.65;8.15;;;;;;;0.27;66.42;101842.06;5071124;28;20070;-66
2022/03/01 05:20:51;;;;;;;7.70;7.30;;;;;;;0.33;66.14;101845.31;5071743;28;20028;-66
2022/03/01 05:23:17;;;;;;;8.02;7.53;;;;;;;0.22;65.81;101838.88;5070941;28;20032;-66
2022/03/01 05:25:43;;;;;;;8.40;7.90;;;;;;;0.37;65.90;101846.81;5069452;28;20556;-65
2022/03/01 05:28:09;;;;;;;8.05;7.57;;;;;;;0.36;66.00;101847.75;5071744;28;20372;-66
2022/03/01 05:30:35;;;;;;;8.32;7.82;;;;;;;0.41;65.39;101848.38;5071655;28;20112;-67
2022/03/01 05:33:00;;;;;;;8.80;8.25;;;;;;;0.33;65.35;101847.91;5071579;28;20215;-66
2022/03/01 05:35:28;;;;;;;8.75;8.18;;;;;;;0.30;65.19;101845.47;5071871;28;20058;-65
2022/03/01 05:37:55;;;;;;;8.60;8.10;;;;;;;0.60;65.52;101861.34;5087288;28;20119;-64
2022/03/01 05:40:23;;;;;;;8.32;7.82;;;;;;;1.23;65.88;101857.13;5066945;28;20447;-65
2022/03/01 05:42:49;;;;;;;9.10;8.50;;;;;;;0.66;64.14;101858.41;5070395;28;20142;-64
2022/03/01 05:45:15;;;;;;;9.02;8.43;;;;;;;0.60;64.27;101850.91;5069917;28;20032;-64
2022/03/01 05:47:43;;;;;;;8.82;8.25;;;;;;;0.49;64.98;101859.28;5070912;28;20107;-65
2022/03/01 05:50:09;;;;;;;9.10;8.50;;;;;;;0.34;65.73;101850.44;5073207;28;20029;-65
2022/03/01 05:52:36;;;;;;;8.73;8.20;;;;;;;0.43;65.83;101863.03;5071028;28;20129;-66
2022/03/01 05:55:03;;;;;;;8.13;7.63;;;;;;;0.44;65.80;101856.03;5065113;28;20020;-65
2022/03/01 05:57:29;;;;;;;8.35;7.85;;;;;;;0.27;66.48;101862.94;5070685;28;20121;-66
2022/03/01 05:59:55;;;;;;;7.90;7.50;;;;;;;0.38;66.54;101857.22;5068717;28;20111;-66
2022/03/01 06:02:21;;;;;;;7.78;7.38;;;;;;;0.44;66.49;101859.53;5070268;28;20073;-66
2022/03/01 06:04:46;;;;;;;8.25;7.75;;;;;;;0.44;67.01;101856.91;5067272;28;20032;-66
2022/03/01 06:07:12;;;;;;;7.85;7.40;;;;;;;0.49;66.81;101859.28;5071144;28;20021;-65
2022/03/01 06:09:37;;;;;;;7.50;7.10;;;;;;;0.52;66.79;101859.13;5071151;28;20066;-66
2022/03/01 06:12:03;;;;;;;9.05;8.45;;;;;;;0.48;67.22;101863.66;5070763;28;20082;-65
2022/03/01 06:14:28;;;;;;;8.00;7.55;;;;;;;0.49;66.69;101854.03;5069254;28;20473;-66
2022/03/01 06:16:54;;;;;;;8.07;7.57;;;;;;;0.55;66.50;101867.66;5069720;28;20039;-66
2022/03/01 06:19:19;;;;;;;8.82;8.27;;;;;;;0.61;66.53;101858.66;5069316;28;20085;-67
2022/03/01 06:21:45;;;;;;;8.20;7.70;;;;;;;0.63;66.01;101877.69;5071071;28;20028;-67
2022/03/01 06:24:11;;;;;;;8.30;7.80;;;;;;;0.58;65.50;101866.63;5068895;28;20032;-66
2022/03/01 06:26:37;;;;;;;7.80;7.40;;;;;;;0.56;65.30;101871.09;5069737;28;20170;-67
2022/03/01 06:29:03;;;;;;;8.38;7.88;;;;;;;0.66;65.26;101871.47;5070072;28;20049;-66
2022/03/01 06:31:29;;;;;;;7.35;6.95;;;;;;;0.55;65.19;101866.81;5070836;28;20024;-66
2022/03/01 06:33:56;;;;;;;8.25;7.75;;;;;;;0.66;65.44;101879.28;5069264;28;20028;-66
2022/03/01 06:36:22;;;;;;;8.20;7.70;;;;;;;0.70;65.13;101880.84;5070212;28;20492;-66
2022/03/01 06:38:48;;;;;;;7.75;7.35;;;;;;;0.78;65.29;101884.75;5069704;28;20151;-65
2022/03/01 06:41:13;;;;;;;9.65;8.95;;;;;;;0.71;65.35;101882.53;5069418;28;20111;-65
2022/03/01 06:43:38;;;;;;;8.80;8.20;;;;;;;0.62;65.55;101881.25;5070191;28;20531;-65
2022/03/01 06:46:04;;;;;;;7.68;7.28;;;;;;;0.55;65.62;101872.88;5068659;28;20028;-65
2022/03/01 06:48:30;;;;;;;7.65;7.25;;;;;;;0.48;65.86;101886.31;5070683;28;20043;-65
2022/03/01 06:50:55;;;;;;;8.32;7.82;;;;;;;0.60;65.75;101884.84;5069600;28;20035;-66
2022/03/01 06:53:21;;;;;;;8.13;7.63;;;;;;;0.57;65.50;101875.38;5070675;28;20414;-65
2022/03/01 06:55:46;;;;;;;7.50;7.10;;;;;;;0.59;66.19;101886.63;5069258;28;20055;-66
2022/03/01 06:58:12;;;;;;;7.55;7.15;;;;;;;0.58;66.07;101871.84;5073493;28;20119;-66
2022/03/01 07:00:38;;;;;;;7.72;7.32;;;;;;;0.66;65.51;101874.06;5065577;28;20020;-66
2022/03/01 07:03:04;;;;;;;7.28;6.88;;;;;;;0.76;65.45;101884.00;5074873;28;20407;-65
2022/03/01 07:05:29;;;;;;;8.00;7.50;;;;;;;0.77;65.28;101882.22;5074758;28;20048;-65
2022/03/01 07:07:55;;;;;;;7.60;7.20;;;;;;;0.79;64.79;101886.44;5074635;28;20577;-66
2022/03/01 07:10:20;;;;;;;8.00;7.50;;;;;;;0.64;65.88;101875.94;5074458;28;20430;-66
2022/03/01 07:12:47;;;;;;;7.55;7.15;;;;;;;0.71;65.96;101872.94;5070765;28;20409;-66
2022/03/01 07:15:13;;;;;;;8.50;7.97;;;;;;;0.63;66.57;101871.63;5074688;28;20383;-66
2022/03/01 07:17:38;;;;;;;8.25;7.75;;;;;;;0.76;66.23;101864.88;5074273;28;20033;-66
2022/03/01 07:20:07;;;;;;;8.50;8.00;;;;;;;0.71;65.89;101866.84;5074375;28;20024;-66
2022/03/01 07:22:33;;;;;;;8.02;7.60;;;;;;;0.55;66.41;101858.97;5074847;28;20034;-65
2022/03/01 07:24:59;;;;;;;7.53;7.13;;;;;;;0.71;66.96;101853.81;5073142;28;20118;-66
2022/03/01 07:27:24;;;;;;;8.27;7.78;;;;;;;0.79;66.30;101834.19;5065370;28;20064;-66
2022/03/01 07:29:49;;;;;;;8.63;8.13;;;;;;;0.62;66.76;101849.91;5072627;28;20064;-67
2022/03/01 07:32:15;;;;;;;8.25;7.75;;;;;;;0.75;67.04;101837.06;5074182;28;20410;-66
2022/03/01 07:34:42;;;;;;;8.10;7.65;;;;;;;0.77;67.47;101858.72;5073929;28;20024;-66
2022/03/01 07:37:08;;;;;;;8.18;7.68;;;;;;;0.72;67.89;101856.34;5073927;28;20494;-65
2022/03/01 07:39:34;;;;;;;7.75;7.35;;;;;;;0.68;67.46;101846.13;5073999;28;20020;-65
2022/03/01 07:41:59;;;;;;;9.15;8.55;;;;;;;0.65;68.04;101846.28;5073482;28;20416;-65
2022/03/01 07:44:25;;;;;;;9.15;8.55;;;;;;;0.71;68.32;101851.19;5073548;28;20041;-66
2022/03/01 07:46:50;;;;;;;8.07;7.63;;;;;;;0.75;68.47;101850.97;5073655;28;20032;-66
2022/03/01 07:49:16;;;;;;;8.18;7.68;;;;;;;0.70;68.64;101862.56;5073898;28;20028;-66
2022/03/01 07:51:42;;;;;;;7.90;7.50;;;;;;;0.80;69.67;101842.88;5073327;28;20107;-65
2022/03/01 07:54:07;;;;;;;8.27;7.78;;;;;;;0.66;70.11;101846.22;5073633;28;20024;-65
2022/03/01 07:56:33;;;;;;;8.38;7.88;;;;;;;0.76;70.50;101852.66;5062449;28;20125;-66
2022/03/01 07:58:58;;;;;;;7.53;7.13;;;;;;;0.57;70.41;101854.50;5073588;28;20110;-66
2022/03/01 08:01:24;;;;;;;8.20;7.70;;;;;;;0.63;69.67;101854.19;5072633;28;20142;-66
2022/03/01 08:03:50;;;;;;;8.10;7.65;;;;;;;0.80;70.03;101866.38;5073939;28;20406;-65
2022/03/01 08:06:16;;;;;;;7.80;7.40;;;;;;;0.83;70.38;101868.84;5073636;28;20032;-66
2022/03/01 08:08:42;;;;;;;8.38;7.88;;;;;;;0.75;70.95;101871.88;5070739;28;20112;-66
2022/03/01 08:11:08;;;;;;;8.38;7.88;;;;;;;0.79;70.66;101880.38;5073495;28;20111;-66
2022/03/01 08:13:34;;;;;;;7.80;7.40;;;;;;;0.45;72.28;101874.25;5070034;28;20027;-66
2022/03/01 08:16:02;;;;;;;7.80;7.40;;;;;;;0.52;72.47;101886.09;5073283;28;20032;-66
2022/03/01 08:18:28;;;;;;;7.57;7.18;;;;;;;0.47;73.32;101871.56;5073313;28;20074;-66
2022/03/01 08:20:53;;;;;;;7.97;7.50;;;;;;;0.42;73.29;101873.56;5072962;28;20028;-66
2022/03/01 08:23:19;;;;;;;8.50;8.00;;;;;;;0.45;73.67;101882.09;5066841;28;20183;-65
2022/03/01 08:25:45;;;;;;;8.43;7.93;;;;;;;0.50;73.53;101881.84;5082326;28;20040;-65
2022/03/01 08:28:12;;;;;;;8.52;8.02;;;;;;;0.59;73.03;101883.13;5072879;28;20112;-66
2022/03/01 08:30:38;;;;;;;7.88;7.47;;;;;;;0.57;72.88;101890.22;5073036;28;20031;-66
2022/03/01 08:33:04;;;;;;;8.40;7.90;;;;;;;0.58;73.35;101897.13;5072993;28;20024;-66
2022/03/01 08:35:32;;;;;;;8.23;7.72;;;;;;;0.57;73.11;101890.22;5074359;28;20032;-66
2022/03/01 08:38:05;;;;;;;8.32;7.82;;;;;;;0.43;73.12;101883.91;5068470;28;20036;-65
2022/03/01 08:40:33;;;;;;;6.97;6.68;;;;;;;0.43;73.34;101890.91;5073868;28;20049;-67
2022/03/01 08:42:59;;;;;;;7.93;7.53;;;;;;;0.54;73.29;101897.28;5073184;28;20059;-66
2022/03/01 08:45:24;;;;;;;8.05;7.57;;;;;;;0.57;73.00;101898.03;5072594;28;20025;-65
2022/03/01 08:47:51;;;;;;;8.25;7.75;;;;;;;0.34;73.50;101862.66;5073037;28;20472;-66
2022/03/01 08:50:16;;;;;;;7.63;7.22;;;;;;;0.49;73.99;101890.59;5055533;28;20450;-66
2022/03/01 08:52:42;;;;;;;8.18;7.68;;;;;;;0.47;74.26;101875.03;5057908;28;20131;-65
2022/03/01 08:55:08;;;;;;;9.95;9.25;;;;;;;0.48;74.61;101879.31;5072859;28;20081;-65
2022/03/01 08:57:34;;;;;;;8.32;7.82;;;;;;;0.39;75.55;101874.56;5072385;28;20094;-65
2022/03/01 08:59:59;;;;;;;7.47;7.07;;;;;;;0.51;75.66;101881.78;5072821;28;20103;-66
2022/03/01 09:02:25;;;;;;;8.93;8.35;;;;;;;0.36;76.65;101882.53;5072807;28;20432;-65
2022/03/01 09:04:50;;;;;;;8.10;7.60;;;;;;;0.39;76.85;101878.94;5072113;28;20089;-66
2022/03/01 09:07:15;;;;;;;7.80;7.40;;;;;;;0.37;77.60;101884.25;5083815;28;20514;-66
2022/03/01 09:09:41;;;;;;;6.97;6.68;;;;;;;0.43;77.36;101885.69;5072738;28;20483;-66
2022/03/01 09:12:07;;;;;;;7.88;7.45;;;;;;;0.43;77.93;101880.47;5067978;28;20407;-65
2022/03/01 09:14:32;;;;;;;7.40;7.00;;;;;;;0.39;77.98;101878.94;5072330;28;20032;-67
2022/03/01 09:16:58;;;;;;;7.72;7.32;;;;;;;0.57;77.91;101882.38;5072555;28;20114;-65
2022/03/01 09:19:23;;;;;;;8.23;7.72;;;;;;;0.51;77.81;101881.78;5071679;28;20021;-66
2022/03/01 09:21:49;;;;;;;8.43;7.93;;;;;;;0.47;78.45;101876.78;5072169;28;20372;-65
2022/03/01 09:24:14;;;;;;;8.07;7.57;;;;;;;0.52;78.04;101880.88;5072473;28;20050;-65
2022/03/01 09:26:40;;;;;;;8.43;7.93;;;;;;;0.44;78.89;101882.13;5072034;28;20028;-65
2022/03/01 09:29:05;;;;;;;9.18;8.57;;;;;;;0.38;79.07;101885.94;5071617;28;20020;-66
2022/03/01 09:31:31;;;;;;;8.93;8.32;;;;;;;0.34;79.80;101878.31;5071426;28;20028;-66
2022/03/01 09:33:56;;;;;;;8.68;8.18;;;;;;;0.27;79.87;101886.44;5071891;28;20066;-66
2022/03/01 09:36:22;;;;;;;9.07;8.48;;;;;;;0.35;79.98;101873.00;5071703;28;20531;-66
2022/03/01 09:38:48;;;;;;;8.05;7.63;;;;;;;0.38;80.28;101885.09;5070609;28;20387;-66
2022/03/01 09:41:14;;;;;;;8.35;7.88;;;;;;;0.34;80.81;101880.91;5072120;28;20032;-66
2022/03/01 09:43:41;;;;;;;10.05;9.35;;;;;;;0.34;81.03;101878.31;5071589;28;20024;-66
2022/03/01 09:46:08;;;;;;;7.82;7.40;;;;;;;0.27;81.61;101873.38;5069891;28;20403;-66
2022/03/01 09:48:35;;;;;;;7.38;6.97;;;;;;;0.32;82.33;101867.94;5071713;28;20080;-66
2022/03/01 09:51:03;;;;;;;8.32;7.82;;;;;;;0.48;81.97;101865.41;5073130;28;20036;-66
2022/03/01 09:53:28;;;;;;;7.20;6.85;;;;;;;0.37;82.75;101860.75;5071706;28;20028;-65
2022/03/01 09:55:55;;;;;;;8.18;7.68;;;;;;;0.46;83.25;101860.28;5071479;28;20055;-66
2022/03/01 09:58:21;;;;;;;8.88;8.30;;;;;;;0.46;83.43;101862.03;5071095;28;20117;-66
2022/03/01 10:00:47;;;;;;;7.82;7.43;;;;;;;0.41;83.37;101851.81;5071576;28;20633;-65
2022/03/01 10:03:17;;;;;;;7.03;6.72;;;;;;;0.45;83.63;101849.91;5071805;28;20016;-66
2022/03/01 10:05:45;;;;;;;10.25;9.55;;;;;;;0.41;84.06;101854.44;5072725;28;20078;-65
2022/03/01 10:08:16;;;;;;;7.95;7.50;;;;;;;0.42;84.44;101852.66;5071747;28;20028;-66
2022/03/01 10:10:47;;;;;;;8.10;7.60;;;;;;;0.45;83.78;101852.53;5071496;28;20040;-66
2022/03/01 10:13:15;;;;;;;8.27;7.78;;;;;;;0.65;83.37;101846.28;5069899;28;20028;-65
2022/03/01 10:15:41;;;;;;;7.28;6.88;;;;;;;0.54;84.01;101836.41;5071298;28;20055;-66
2022/03/01 10:18:15;;;;;;;8.20;7.70;;;;;;;0.47;83.96;101830.63;5071069;28;20056;-65
2022/03/01 10:20:44;;;;;;;8.50;8.00;;;;;;;0.20;84.31;101826.78;5070989;28;20020;-66
2022/03/01 10:23:11;;;;;;;8.20;7.70;;;;;;;0.51;83.53;101826.09;5070930;28;20394;-65
2022/03/01 10:25:39;;;;;;;8.38;7.88;;;;;;;0.47;84.21;101832.41;5071432;28;20051;-66
2022/03/01 10:28:06;;;;;;;7.95;7.45;;;;;;;0.54;84.85;101824.19;5072527;28;20020;-66
2022/03/01 10:30:35;;;;;;;8.32;7.82;;;;;;;0.56;83.65;101826.72;5071022;28;20024;-65
2022/03/01 10:33:12;;;;;;;8.35;7.85;;;;;;;0.62;83.51;101812.50;5071028;28;20024;-66
2022/03/01 10:35:40;;;;;;;8.43;7.93;;;;;;;0.52;83.79;101817.38;5054414;28;20028;-65
2022/03/01 10:38:07;;;;;;;8.88;8.27;;;;;;;0.49;83.07;101818.34;5053261;28;20063;-65
2022/03/01 10:40:34;;;;;;;8.32;7.82;;;;;;;0.28;83.95;101806.38;5070891;28;20031;-65
2022/03/01 10:43:04;;;;;;;7.95;7.50;;;;;;;0.58;83.58;101808.34;5071333;28;20028;-65
2022/03/01 10:45:35;;;;;;;7.80;7.40;;;;;;;0.65;82.83;101797.50;5070491;28;20040;-66
2022/03/01 10:48:03;;;;;;;7.78;7.38;;;;;;;0.77;81.91;101806.47;5070977;28;20024;-66
2022/03/01 10:50:28;;;;;;;7.70;7.30;;;;;;;0.63;82.42;101804.59;5070905;28;20033;-66
2022/03/01 10:52:54;;;;;;;7.35;6.95;;;;;;;0.66;81.65;101800.97;5071097;28;20017;-65
2022/03/01 10:55:23;;;;;;;7.28;6.88;;;;;;;0.66;81.44;101798.34;5069628;28;20448;-66
2022/03/01 10:58:06;;;;;;;7.57;7.18;;;;;;;0.68;82.80;101801.75;5070896;28;20051;-65
2022/03/01 11:00:33;;;;;;;7.78;7.38;;;;;;;0.49;82.68;101784.41;5071104;28;20025;-65
2022/03/01 11:02:59;;;;;;;7.55;7.15;;;;;;;0.58;82.71;101790.91;5070873;28;20510;-66
2022/03/01 11:05:28;;;;;;;7.57;7.18;;;;;;;0.71;81.97;101786.75;5070680;28;20399;-66
2022/03/01 11:07:54;;;;;;;7.53;7.13;;;;;;;0.53;81.86;101785.94;5070964;28;20089;-66
2022/03/01 11:10:22;;;;;;;7.32;6.93;;;;;;;0.55;81.57;101778.88;5070546;28;20037;-66
2022/03/01 11:12:48;;;;;;;7.57;7.18;;;;;;;0.60;82.23;101785.63;5067420;28;20094;-67
2022/03/01 11:15:44;;;;;;;8.40;7.90;;;;;;;0.56;81.50;101779.72;5070671;28;20024;-66
2022/03/01 11:18:23;;;;;;;7.70;7.30;;;;;;;0.53;81.91;101772.06;5070615;28;20042;-65
2022/03/01 11:20:49;;;;;;;7.80;7.40;;;;;;;0.53;82.09;101777.28;5070420;28;20024;-65
2022/03/01 11:23:21;;;;;;;7.30;6.90;;;;;;;0.55;82.22;101773.66;5072007;28;20532;-65
2022/03/01 11:25:47;;;;;;;8.30;7.80;;;;;;;0.59;81.77;101765.63;5070369;28;20040;-67
2022/03/01 11:28:16;;;;;;;7.05;6.72;;;;;;;0.50;82.21;101767.81;5070770;28;20391;-66
2022/03/01 11:30:51;;;;;;;7.32;6.93;;;;;;;0.41;82.85;101765.69;5085010;28;20101;-66
2022/03/01 11:33:35;;;;;;;8.50;8.00;;;;;;;0.39;81.76;101751.03;5070829;28;20112;-66